sensor_id;sensor_type;location;lat;lon;timestamp;temperature;humidity
14682;DHT22;7429;52.498;13.480;2023-01-30T00:01:38;2.00;99.90
14682;DHT22;7429;52.498;13.480;2023-01-30T00:04:41;2.00;99.90
14682;DHT22;7429;52.498;13.480;2023-01-30T00:07:45;2.00;99.90
14682;DHT22;7429;52.498;13.480;2023-01-30T00:10:49;2.10;99.90
14682;DHT22;7429;52.498;13.480;2023-01-30T00:13:52;2.10;99.90
14682;DHT22;7429;52.498;13.480;2023-01-30T00:16:59;2.10;99.90
14682;DHT22;7429;52.498;13.480;2023-01-30T00:20:03;2.10;99.90
14682;DHT22;7429;52.498;13.480;2023-01-30T00:23:07;2.10;99.90
14682;DHT22;7429;52.498;13.480;2023-01-30T00:26:11;2.10;99.90
14682;DHT22;7429;52.498;13.480;2023-01-30T00:29:16;2.10;99.90
14682;DHT22;7429;52.498;13.480;2023-01-30T00:32:20;2.10;99.90
14682;DHT22;7429;52.498;13.480;2023-01-30T00:35:24;2.10;99.90
14682;DHT22;7429;52.498;13.480;2023-01-30T00:38:30;2.00;99.90
14682;DHT22;7429;52.498;13.480;2023-01-30T00:41:33;2.10;99.90
14682;DHT22;7429;52.498;13.480;2023-01-30T00:44:50;2.10;99.90
14682;DHT22;7429;52.498;13.480;2023-01-30T00:48:13;2.10;99.90
14682;DHT22;7429;52.498;13.480;2023-01-30T00:51:16;2.00;99.90
14682;DHT22;7429;52.498;13.480;2023-01-30T00:54:19;2.00;99.90
14682;DHT22;7429;52.498;13.480;2023-01-30T00:57:22;1.90;99.90
14682;DHT22;7429;52.498;13.480;2023-01-30T01:00:25;1.90;99.90
14682;DHT22;7429;52.498;13.480;2023-01-30T01:03:30;1.90;99.90
14682;DHT22;7429;52.498;13.480;2023-01-30T01:06:34;1.90;99.90
14682;DHT22;7429;52.498;13.480;2023-01-30T01:09:37;1.80;99.90
14682;DHT22;7429;52.498;13.480;2023-01-30T01:12:41;1.80;99.90
14682;DHT22;7429;52.498;13.480;2023-01-30T01:15:45;1.80;99.90
14682;DHT22;7429;52.498;13.480;2023-01-30T01:18:50;1.80;99.90
14682;DHT22;7429;52.498;13.480;2023-01-30T01:21:53;1.80;99.90
14682;DHT22;7429;52.498;13.480;2023-01-30T01:24:57;1.80;99.90
14682;DHT22;7429;52.498;13.480;2023-01-30T01:28:05;1.80;99.90
14682;DHT22;7429;52.498;13.480;2023-01-30T01:31:09;1.90;99.90
14682;DHT22;7429;52.498;13.480;2023-01-30T01:34:14;1.80;99.90
14682;DHT22;7429;52.498;13.480;2023-01-30T01:37:18;1.80;99.90
14682;DHT22;7429;52.498;13.480;2023-01-30T01:40:29;1.80;99.90
14682;DHT22;7429;52.498;13.480;2023-01-30T01:43:59;1.80;99.90
14682;DHT22;7429;52.498;13.480;2023-01-30T01:47:04;1.80;99.90
14682;DHT22;7429;52.498;13.480;2023-01-30T01:50:12;1.80;99.90
14682;DHT22;7429;52.498;13.480;2023-01-30T01:53:20;1.90;99.90
14682;DHT22;7429;52.498;13.480;2023-01-30T01:56:27;1.90;99.90
14682;DHT22;7429;52.498;13.480;2023-01-30T01:59:33;1.90;99.90
14682;DHT22;7429;52.498;13.480;2023-01-30T02:02:40;1.90;99.90
14682;DHT22;7429;52.498;13.480;2023-01-30T02:05:50;1.90;99.90
14682;DHT22;7429;52.498;13.480;2023-01-30T02:09:00;1.90;99.90
14682;DHT22;7429;52.498;13.480;2023-01-30T02:12:06;1.90;99.90
14682;DHT22;7429;52.498;13.480;2023-01-30T02:15:10;1.90;99.90
14682;DHT22;7429;52.498;13.480;2023-01-30T02:18:16;1.90;99.90
14682;DHT22;7429;52.498;13.480;2023-01-30T02:25:35;1.80;99.90
14682;DHT22;7429;52.498;13.480;2023-01-30T02:32:42;1.80;99.90
14682;DHT22;7429;52.498;13.480;2023-01-30T02:35:53;1.80;99.90
14682;DHT22;7429;52.498;13.480;2023-01-30T02:39:05;1.80;99.90
14682;DHT22;7429;52.498;13.480;2023-01-30T02:42:22;1.80;99.90
14682;DHT22;7429;52.498;13.480;2023-01-30T02:45:35;1.70;99.90
14682;DHT22;7429;52.498;13.480;2023-01-30T02:48:44;1.80;99.90
14682;DHT22;7429;52.498;13.480;2023-01-30T02:51:53;1.80;99.90
14682;DHT22;7429;52.498;13.480;2023-01-30T02:55:07;1.70;99.90
14682;DHT22;7429;52.498;13.480;2023-01-30T02:58:12;1.70;99.90
14682;DHT22;7429;52.498;13.480;2023-01-30T03:01:28;1.70;99.90
14682;DHT22;7429;52.498;13.480;2023-01-30T03:05:00;1.60;99.90
14682;DHT22;7429;52.498;13.480;2023-01-30T03:08:19;1.60;99.90
14682;DHT22;7429;52.498;13.480;2023-01-30T03:11:36;1.50;99.90
14682;DHT22;7429;52.498;13.480;2023-01-30T03:14:48;1.50;99.90
14682;DHT22;7429;52.498;13.480;2023-01-30T03:17:54;1.50;99.90
14682;DHT22;7429;52.498;13.480;2023-01-30T03:21:04;1.50;99.90
14682;DHT22;7429;52.498;13.480;2023-01-30T03:24:12;1.50;99.90
14682;DHT22;7429;52.498;13.480;2023-01-30T03:27:16;1.60;99.90
14682;DHT22;7429;52.498;13.480;2023-01-30T03:30:22;1.60;99.90
14682;DHT22;7429;52.498;13.480;2023-01-30T03:33:33;1.50;99.90
14682;DHT22;7429;52.498;13.480;2023-01-30T03:36:39;1.60;99.90
14682;DHT22;7429;52.498;13.480;2023-01-30T03:39:43;1.60;99.90
14682;DHT22;7429;52.498;13.480;2023-01-30T03:42:49;1.60;99.90
14682;DHT22;7429;52.498;13.480;2023-01-30T03:45:52;1.60;99.90
14682;DHT22;7429;52.498;13.480;2023-01-30T03:48:55;1.70;99.90
14682;DHT22;7429;52.498;13.480;2023-01-30T03:52:00;1.70;99.90
14682;DHT22;7429;52.498;13.480;2023-01-30T03:55:08;1.70;99.90
14682;DHT22;7429;52.498;13.480;2023-01-30T03:58:12;1.80;99.90
14682;DHT22;7429;52.498;13.480;2023-01-30T04:01:18;1.80;99.90
14682;DHT22;7429;52.498;13.480;2023-01-30T04:04:22;1.80;99.90
14682;DHT22;7429;52.498;13.480;2023-01-30T04:07:28;1.80;99.90
14682;DHT22;7429;52.498;13.480;2023-01-30T04:10:32;1.80;99.90
14682;DHT22;7429;52.498;13.480;2023-01-30T04:13:35;1.80;99.90
14682;DHT22;7429;52.498;13.480;2023-01-30T04:16:39;1.90;99.90
14682;DHT22;7429;52.498;13.480;2023-01-30T04:20:06;1.90;99.90
14682;DHT22;7429;52.498;13.480;2023-01-30T04:23:14;1.90;99.90
14682;DHT22;7429;52.498;13.480;2023-01-30T04:26:17;1.90;99.90
14682;DHT22;7429;52.498;13.480;2023-01-30T04:29:21;2.00;99.90
14682;DHT22;7429;52.498;13.480;2023-01-30T04:32:26;2.00;99.90
14682;DHT22;7429;52.498;13.480;2023-01-30T04:35:29;2.10;99.90
14682;DHT22;7429;52.498;13.480;2023-01-30T04:38:34;2.10;99.90
14682;DHT22;7429;52.498;13.480;2023-01-30T04:41:41;2.10;99.90
14682;DHT22;7429;52.498;13.480;2023-01-30T04:44:44;2.20;99.90
14682;DHT22;7429;52.498;13.480;2023-01-30T04:47:53;2.20;99.90
14682;DHT22;7429;52.498;13.480;2023-01-30T04:50:59;2.30;99.90
14682;DHT22;7429;52.498;13.480;2023-01-30T04:54:04;2.30;99.90
14682;DHT22;7429;52.498;13.480;2023-01-30T04:57:07;2.30;99.90
14682;DHT22;7429;52.498;13.480;2023-01-30T05:00:11;2.40;99.90
14682;DHT22;7429;52.498;13.480;2023-01-30T05:03:23;2.40;99.90
14682;DHT22;7429;52.498;13.480;2023-01-30T05:06:26;2.40;99.90
14682;DHT22;7429;52.498;13.480;2023-01-30T05:09:31;2.50;99.90
14682;DHT22;7429;52.498;13.480;2023-01-30T05:12:34;2.40;99.90
14682;DHT22;7429;52.498;13.480;2023-01-30T05:15:38;2.40;99.90
14682;DHT22;7429;52.498;13.480;2023-01-30T05:18:42;2.40;99.90
14682;DHT22;7429;52.498;13.480;2023-01-30T05:21:45;2.40;99.90
14682;DHT22;7429;52.498;13.480;2023-01-30T05:24:49;2.30;99.90
14682;DHT22;7429;52.498;13.480;2023-01-30T05:27:52;2.30;99.90
14682;DHT22;7429;52.498;13.480;2023-01-30T05:31:00;2.20;99.90
14682;DHT22;7429;52.498;13.480;2023-01-30T05:34:10;2.20;99.90
14682;DHT22;7429;52.498;13.480;2023-01-30T05:37:19;2.20;99.90
14682;DHT22;7429;52.498;13.480;2023-01-30T05:41:00;2.20;99.90
14682;DHT22;7429;52.498;13.480;2023-01-30T05:44:19;2.20;99.90
14682;DHT22;7429;52.498;13.480;2023-01-30T05:47:22;2.20;99.90
14682;DHT22;7429;52.498;13.480;2023-01-30T05:50:26;2.10;99.90
14682;DHT22;7429;52.498;13.480;2023-01-30T05:53:31;2.20;99.90
14682;DHT22;7429;52.498;13.480;2023-01-30T05:56:39;2.20;99.90
14682;DHT22;7429;52.498;13.480;2023-01-30T05:59:42;2.20;99.90
14682;DHT22;7429;52.498;13.480;2023-01-30T06:02:48;2.20;99.90
14682;DHT22;7429;52.498;13.480;2023-01-30T06:05:51;2.20;99.90
14682;DHT22;7429;52.498;13.480;2023-01-30T06:08:55;2.10;99.90
14682;DHT22;7429;52.498;13.480;2023-01-30T06:11:59;2.10;99.90
14682;DHT22;7429;52.498;13.480;2023-01-30T06:15:03;2.10;99.90
14682;DHT22;7429;52.498;13.480;2023-01-30T06:18:07;2.10;99.90
14682;DHT22;7429;52.498;13.480;2023-01-30T06:21:11;2.20;99.90
14682;DHT22;7429;52.498;13.480;2023-01-30T06:24:15;2.20;99.90
14682;DHT22;7429;52.498;13.480;2023-01-30T06:27:19;2.20;99.90
14682;DHT22;7429;52.498;13.480;2023-01-30T06:30:22;2.30;99.90
14682;DHT22;7429;52.498;13.480;2023-01-30T06:33:26;2.40;99.90
14682;DHT22;7429;52.498;13.480;2023-01-30T06:36:29;2.30;99.90
14682;DHT22;7429;52.498;13.480;2023-01-30T06:39:32;2.40;99.90
14682;DHT22;7429;52.498;13.480;2023-01-30T06:42:37;2.40;99.90
14682;DHT22;7429;52.498;13.480;2023-01-30T06:45:40;2.50;99.90
14682;DHT22;7429;52.498;13.480;2023-01-30T06:48:43;2.50;99.90
14682;DHT22;7429;52.498;13.480;2023-01-30T06:51:46;2.60;99.90
14682;DHT22;7429;52.498;13.480;2023-01-30T06:54:50;2.70;99.90
14682;DHT22;7429;52.498;13.480;2023-01-30T06:58:04;2.70;99.90
14682;DHT22;7429;52.498;13.480;2023-01-30T07:01:12;2.80;99.90
14682;DHT22;7429;52.498;13.480;2023-01-30T07:04:15;2.80;99.90
14682;DHT22;7429;52.498;13.480;2023-01-30T07:07:18;2.90;99.90
14682;DHT22;7429;52.498;13.480;2023-01-30T07:10:24;3.00;99.90
14682;DHT22;7429;52.498;13.480;2023-01-30T07:13:31;3.00;99.90
14682;DHT22;7429;52.498;13.480;2023-01-30T07:16:34;3.10;99.90
14682;DHT22;7429;52.498;13.480;2023-01-30T07:19:37;3.20;99.90
14682;DHT22;7429;52.498;13.480;2023-01-30T07:22:48;3.20;99.90
14682;DHT22;7429;52.498;13.480;2023-01-30T07:25:52;3.30;99.90
14682;DHT22;7429;52.498;13.480;2023-01-30T07:28:57;3.40;99.90
14682;DHT22;7429;52.498;13.480;2023-01-30T07:32:00;3.40;99.90
14682;DHT22;7429;52.498;13.480;2023-01-30T07:35:06;3.50;99.90
14682;DHT22;7429;52.498;13.480;2023-01-30T07:38:10;3.60;99.90
14682;DHT22;7429;52.498;13.480;2023-01-30T07:41:13;3.60;99.90
14682;DHT22;7429;52.498;13.480;2023-01-30T07:44:17;3.70;99.90
14682;DHT22;7429;52.498;13.480;2023-01-30T07:47:20;3.80;99.90
14682;DHT22;7429;52.498;13.480;2023-01-30T07:50:24;3.80;99.90
14682;DHT22;7429;52.498;13.480;2023-01-30T07:53:28;3.90;99.90
14682;DHT22;7429;52.498;13.480;2023-01-30T07:56:31;4.00;99.90
14682;DHT22;7429;52.498;13.480;2023-01-30T07:59:36;4.00;99.90
14682;DHT22;7429;52.498;13.480;2023-01-30T08:02:42;4.10;99.90
14682;DHT22;7429;52.498;13.480;2023-01-30T08:05:45;4.20;99.90
14682;DHT22;7429;52.498;13.480;2023-01-30T08:08:48;4.20;99.90
14682;DHT22;7429;52.498;13.480;2023-01-30T08:11:52;4.30;99.90
14682;DHT22;7429;52.498;13.480;2023-01-30T08:15:00;4.40;99.90
14682;DHT22;7429;52.498;13.480;2023-01-30T08:18:07;4.40;99.90
14682;DHT22;7429;52.498;13.480;2023-01-30T08:21:13;4.40;99.90
14682;DHT22;7429;52.498;13.480;2023-01-30T08:24:16;4.50;99.90
14682;DHT22;7429;52.498;13.480;2023-01-30T08:27:19;4.50;99.90
14682;DHT22;7429;52.498;13.480;2023-01-30T08:30:24;4.60;99.90
14682;DHT22;7429;52.498;13.480;2023-01-30T08:33:27;4.60;99.90
14682;DHT22;7429;52.498;13.480;2023-01-30T08:36:33;4.60;99.90
14682;DHT22;7429;52.498;13.480;2023-01-30T08:39:39;4.70;99.90
14682;DHT22;7429;52.498;13.480;2023-01-30T08:42:46;4.70;99.90
14682;DHT22;7429;52.498;13.480;2023-01-30T08:45:55;4.60;99.90
14682;DHT22;7429;52.498;13.480;2023-01-30T08:48:58;4.70;99.90
14682;DHT22;7429;52.498;13.480;2023-01-30T08:52:01;4.70;99.90
14682;DHT22;7429;52.498;13.480;2023-01-30T08:55:08;4.80;99.90
14682;DHT22;7429;52.498;13.480;2023-01-30T08:58:13;4.80;99.90
14682;DHT22;7429;52.498;13.480;2023-01-30T09:01:17;4.80;99.90
14682;DHT22;7429;52.498;13.480;2023-01-30T09:04:22;4.80;99.90
14682;DHT22;7429;52.498;13.480;2023-01-30T09:07:29;4.90;99.90
14682;DHT22;7429;52.498;13.480;2023-01-30T09:10:32;4.90;99.90
14682;DHT22;7429;52.498;13.480;2023-01-30T09:13:35;5.00;99.90
14682;DHT22;7429;52.498;13.480;2023-01-30T09:16:44;5.00;99.90
14682;DHT22;7429;52.498;13.480;2023-01-30T09:19:49;5.10;99.90
14682;DHT22;7429;52.498;13.480;2023-01-30T09:22:52;5.10;99.90
14682;DHT22;7429;52.498;13.480;2023-01-30T09:25:55;5.10;99.90
14682;DHT22;7429;52.498;13.480;2023-01-30T09:28:58;5.10;99.90
14682;DHT22;7429;52.498;13.480;2023-01-30T09:32:03;5.10;99.90
14682;DHT22;7429;52.498;13.480;2023-01-30T09:35:06;5.10;99.90
14682;DHT22;7429;52.498;13.480;2023-01-30T09:38:15;5.10;99.90
14682;DHT22;7429;52.498;13.480;2023-01-30T09:41:37;5.10;99.90
14682;DHT22;7429;52.498;13.480;2023-01-30T09:45:06;5.10;99.90
14682;DHT22;7429;52.498;13.480;2023-01-30T09:48:37;5.20;99.90
14682;DHT22;7429;52.498;13.480;2023-01-30T09:51:57;5.20;99.90
14682;DHT22;7429;52.498;13.480;2023-01-30T09:55:16;5.30;99.90
14682;DHT22;7429;52.498;13.480;2023-01-30T09:58:22;5.30;99.90
14682;DHT22;7429;52.498;13.480;2023-01-30T10:01:29;5.40;99.90
14682;DHT22;7429;52.498;13.480;2023-01-30T10:04:44;5.40;99.90
14682;DHT22;7429;52.498;13.480;2023-01-30T10:08:20;5.50;99.90
14682;DHT22;7429;52.498;13.480;2023-01-30T10:11:42;5.50;99.90
14682;DHT22;7429;52.498;13.480;2023-01-30T10:15:10;5.50;99.90
14682;DHT22;7429;52.498;13.480;2023-01-30T10:18:42;5.60;99.90
14682;DHT22;7429;52.498;13.480;2023-01-30T10:21:59;5.60;99.90
14682;DHT22;7429;52.498;13.480;2023-01-30T10:25:16;5.70;99.90
14682;DHT22;7429;52.498;13.480;2023-01-30T10:28:29;5.90;99.90
14682;DHT22;7429;52.498;13.480;2023-01-30T10:31:43;6.00;99.90
14682;DHT22;7429;52.498;13.480;2023-01-30T10:34:51;6.00;99.90
14682;DHT22;7429;52.498;13.480;2023-01-30T10:38:04;6.10;99.90
14682;DHT22;7429;52.498;13.480;2023-01-30T10:41:19;6.10;99.90
14682;DHT22;7429;52.498;13.480;2023-01-30T10:44:27;6.10;99.90
14682;DHT22;7429;52.498;13.480;2023-01-30T10:47:37;6.10;99.90
14682;DHT22;7429;52.498;13.480;2023-01-30T10:50:52;6.10;99.90
14682;DHT22;7429;52.498;13.480;2023-01-30T10:54:01;6.10;99.90
14682;DHT22;7429;52.498;13.480;2023-01-30T10:57:15;6.10;99.90
14682;DHT22;7429;52.498;13.480;2023-01-30T11:00:26;6.20;99.90
14682;DHT22;7429;52.498;13.480;2023-01-30T11:03:35;6.10;99.90
14682;DHT22;7429;52.498;13.480;2023-01-30T11:06:42;6.20;99.90
14682;DHT22;7429;52.498;13.480;2023-01-30T11:09:47;6.10;99.90
14682;DHT22;7429;52.498;13.480;2023-01-30T11:12:52;6.10;99.90
14682;DHT22;7429;52.498;13.480;2023-01-30T11:16:03;6.20;99.90
14682;DHT22;7429;52.498;13.480;2023-01-30T11:19:07;6.20;99.90
14682;DHT22;7429;52.498;13.480;2023-01-30T11:22:23;6.20;99.90
14682;DHT22;7429;52.498;13.480;2023-01-30T11:25:29;6.10;99.90
14682;DHT22;7429;52.498;13.480;2023-01-30T11:28:39;6.10;99.90
14682;DHT22;7429;52.498;13.480;2023-01-30T11:31:48;6.20;99.90
14682;DHT22;7429;52.498;13.480;2023-01-30T11:35:02;6.30;99.90
14682;DHT22;7429;52.498;13.480;2023-01-30T11:38:21;6.30;99.90
14682;DHT22;7429;52.498;13.480;2023-01-30T11:41:28;6.30;99.90
14682;DHT22;7429;52.498;13.480;2023-01-30T11:44:39;6.30;99.90
14682;DHT22;7429;52.498;13.480;2023-01-30T11:48:20;6.40;99.90
14682;DHT22;7429;52.498;13.480;2023-01-30T11:52:11;6.30;99.90
14682;DHT22;7429;52.498;13.480;2023-01-30T11:55:17;6.20;99.90
14682;DHT22;7429;52.498;13.480;2023-01-30T11:58:22;6.30;99.90
14682;DHT22;7429;52.498;13.480;2023-01-30T12:01:28;6.10;99.90
14682;DHT22;7429;52.498;13.480;2023-01-30T12:04:33;5.90;99.90
14682;DHT22;7429;52.498;13.480;2023-01-30T12:07:39;5.80;99.90
14682;DHT22;7429;52.498;13.480;2023-01-30T12:10:43;5.60;99.90
14682;DHT22;7429;52.498;13.480;2023-01-30T12:13:52;5.40;99.90
14682;DHT22;7429;52.498;13.480;2023-01-30T12:17:04;5.30;99.90
14682;DHT22;7429;52.498;13.480;2023-01-30T12:20:18;5.10;99.90
14682;DHT22;7429;52.498;13.480;2023-01-30T12:23:32;4.90;99.90
14682;DHT22;7429;52.498;13.480;2023-01-30T12:26:44;4.80;99.90
14682;DHT22;7429;52.498;13.480;2023-01-30T12:29:57;4.90;99.90
14682;DHT22;7429;52.498;13.480;2023-01-30T12:33:04;5.10;99.90
14682;DHT22;7429;52.498;13.480;2023-01-30T12:36:15;5.30;99.90
14682;DHT22;7429;52.498;13.480;2023-01-30T12:39:34;5.40;99.90
14682;DHT22;7429;52.498;13.480;2023-01-30T12:43:08;5.50;99.90
14682;DHT22;7429;52.498;13.480;2023-01-30T12:46:43;5.70;99.90
14682;DHT22;7429;52.498;13.480;2023-01-30T12:50:05;5.80;99.90
14682;DHT22;7429;52.498;13.480;2023-01-30T12:53:30;5.90;99.90
14682;DHT22;7429;52.498;13.480;2023-01-30T12:56:53;6.30;99.90
14682;DHT22;7429;52.498;13.480;2023-01-30T13:00:28;6.50;99.90
14682;DHT22;7429;52.498;13.480;2023-01-30T13:03:44;6.70;99.90
14682;DHT22;7429;52.498;13.480;2023-01-30T13:07:07;6.80;99.90
14682;DHT22;7429;52.498;13.480;2023-01-30T13:10:18;6.70;99.90
14682;DHT22;7429;52.498;13.480;2023-01-30T13:13:32;6.60;99.90
14682;DHT22;7429;52.498;13.480;2023-01-30T13:16:54;6.50;99.90
14682;DHT22;7429;52.498;13.480;2023-01-30T13:20:14;6.50;99.90
14682;DHT22;7429;52.498;13.480;2023-01-30T13:23:32;6.40;99.90
14682;DHT22;7429;52.498;13.480;2023-01-30T13:26:42;6.40;99.90
14682;DHT22;7429;52.498;13.480;2023-01-30T13:29:50;6.40;99.90
14682;DHT22;7429;52.498;13.480;2023-01-30T13:32:56;6.50;99.90
14682;DHT22;7429;52.498;13.480;2023-01-30T13:36:09;6.50;99.90
14682;DHT22;7429;52.498;13.480;2023-01-30T13:39:24;6.60;99.90
14682;DHT22;7429;52.498;13.480;2023-01-30T13:42:46;6.70;99.90
14682;DHT22;7429;52.498;13.480;2023-01-30T13:46:36;6.70;99.90
14682;DHT22;7429;52.498;13.480;2023-01-30T13:49:52;6.60;99.90
14682;DHT22;7429;52.498;13.480;2023-01-30T13:53:05;6.50;99.90
14682;DHT22;7429;52.498;13.480;2023-01-30T13:56:19;6.30;99.90
14682;DHT22;7429;52.498;13.480;2023-01-30T14:03:34;5.80;99.90
14682;DHT22;7429;52.498;13.480;2023-01-30T14:06:38;5.70;99.90
14682;DHT22;7429;52.498;13.480;2023-01-30T14:09:50;5.50;99.90
14682;DHT22;7429;52.498;13.480;2023-01-30T14:13:15;5.40;99.90
14682;DHT22;7429;52.498;13.480;2023-01-30T14:16:19;5.20;99.90
14682;DHT22;7429;52.498;13.480;2023-01-30T14:19:42;5.00;99.90
14682;DHT22;7429;52.498;13.480;2023-01-30T14:22:51;4.80;99.90
14682;DHT22;7429;52.498;13.480;2023-01-30T14:25:58;4.70;99.90
14682;DHT22;7429;52.498;13.480;2023-01-30T14:29:02;4.60;99.90
14682;DHT22;7429;52.498;13.480;2023-01-30T14:32:34;4.60;99.90
14682;DHT22;7429;52.498;13.480;2023-01-30T14:36:33;4.60;99.90
14682;DHT22;7429;52.498;13.480;2023-01-30T14:39:39;4.70;99.90
14682;DHT22;7429;52.498;13.480;2023-01-30T14:43:26;4.80;99.90
14682;DHT22;7429;52.498;13.480;2023-01-30T14:46:53;4.90;99.90
14682;DHT22;7429;52.498;13.480;2023-01-30T14:49:59;5.00;99.90
14682;DHT22;7429;52.498;13.480;2023-01-30T14:53:03;5.00;99.90
14682;DHT22;7429;52.498;13.480;2023-01-30T14:56:06;4.90;99.90
14682;DHT22;7429;52.498;13.480;2023-01-30T14:59:29;4.80;99.90
14682;DHT22;7429;52.498;13.480;2023-01-30T15:03:38;4.70;99.90
14682;DHT22;7429;52.498;13.480;2023-01-30T15:06:50;4.70;99.90
14682;DHT22;7429;52.498;13.480;2023-01-30T15:09:56;4.60;99.90
14682;DHT22;7429;52.498;13.480;2023-01-30T15:13:16;4.60;99.90
14682;DHT22;7429;52.498;13.480;2023-01-30T15:16:53;4.50;99.90
14682;DHT22;7429;52.498;13.480;2023-01-30T15:20:10;4.60;99.90
14682;DHT22;7429;52.498;13.480;2023-01-30T15:23:44;4.60;99.90
14682;DHT22;7429;52.498;13.480;2023-01-30T15:27:15;4.60;99.90
14682;DHT22;7429;52.498;13.480;2023-01-30T15:30:37;4.70;99.90
14682;DHT22;7429;52.498;13.480;2023-01-30T15:33:51;4.70;99.90
14682;DHT22;7429;52.498;13.480;2023-01-30T15:37:00;4.70;99.90
14682;DHT22;7429;52.498;13.480;2023-01-30T15:40:20;4.80;99.90
14682;DHT22;7429;52.498;13.480;2023-01-30T15:43:41;4.80;99.90
14682;DHT22;7429;52.498;13.480;2023-01-30T15:47:16;4.80;99.90
14682;DHT22;7429;52.498;13.480;2023-01-30T15:50:25;4.80;99.90
14682;DHT22;7429;52.498;13.480;2023-01-30T15:53:31;4.80;99.90
14682;DHT22;7429;52.498;13.480;2023-01-30T15:56:38;4.80;99.90
14682;DHT22;7429;52.498;13.480;2023-01-30T15:59:46;4.80;99.90
14682;DHT22;7429;52.498;13.480;2023-01-30T16:02:49;4.80;99.90
14682;DHT22;7429;52.498;13.480;2023-01-30T16:05:55;4.90;99.90
14682;DHT22;7429;52.498;13.480;2023-01-30T16:09:00;4.90;99.90
14682;DHT22;7429;52.498;13.480;2023-01-30T16:12:05;4.80;99.90
14682;DHT22;7429;52.498;13.480;2023-01-30T16:15:29;4.90;99.90
14682;DHT22;7429;52.498;13.480;2023-01-30T16:18:39;4.80;99.90
14682;DHT22;7429;52.498;13.480;2023-01-30T16:21:46;4.90;99.90
14682;DHT22;7429;52.498;13.480;2023-01-30T16:24:51;4.90;99.90
14682;DHT22;7429;52.498;13.480;2023-01-30T16:27:55;5.00;99.90
14682;DHT22;7429;52.498;13.480;2023-01-30T16:31:00;5.00;99.90
14682;DHT22;7429;52.498;13.480;2023-01-30T16:34:04;4.90;99.90
14682;DHT22;7429;52.498;13.480;2023-01-30T16:37:23;5.00;99.90
14682;DHT22;7429;52.498;13.480;2023-01-30T16:40:30;4.90;99.90
14682;DHT22;7429;52.498;13.480;2023-01-30T16:43:45;4.80;99.90
14682;DHT22;7429;52.498;13.480;2023-01-30T16:46:59;4.70;99.90
14682;DHT22;7429;52.498;13.480;2023-01-30T16:50:04;4.70;99.90
14682;DHT22;7429;52.498;13.480;2023-01-30T16:53:17;4.70;99.90
14682;DHT22;7429;52.498;13.480;2023-01-30T16:56:26;4.70;99.90
14682;DHT22;7429;52.498;13.480;2023-01-30T16:59:34;4.70;99.90
14682;DHT22;7429;52.498;13.480;2023-01-30T17:02:49;4.70;99.90
14682;DHT22;7429;52.498;13.480;2023-01-30T17:06:00;4.70;99.90
14682;DHT22;7429;52.498;13.480;2023-01-30T17:09:36;4.80;99.90
14682;DHT22;7429;52.498;13.480;2023-01-30T17:12:47;4.80;99.90
14682;DHT22;7429;52.498;13.480;2023-01-30T17:15:54;4.80;99.90
14682;DHT22;7429;52.498;13.480;2023-01-30T17:19:27;4.80;99.90
14682;DHT22;7429;52.498;13.480;2023-01-30T17:22:30;4.90;99.90
14682;DHT22;7429;52.498;13.480;2023-01-30T17:25:37;4.90;99.90
14682;DHT22;7429;52.498;13.480;2023-01-30T17:28:42;5.00;99.90
14682;DHT22;7429;52.498;13.480;2023-01-30T17:31:49;5.00;99.90
14682;DHT22;7429;52.498;13.480;2023-01-30T17:34:53;5.00;99.90
14682;DHT22;7429;52.498;13.480;2023-01-30T17:37:57;5.10;99.90
14682;DHT22;7429;52.498;13.480;2023-01-30T17:41:11;5.00;99.90
14682;DHT22;7429;52.498;13.480;2023-01-30T17:44:20;5.10;99.90
14682;DHT22;7429;52.498;13.480;2023-01-30T17:47:27;5.10;99.90
14682;DHT22;7429;52.498;13.480;2023-01-30T17:50:31;5.10;99.90
14682;DHT22;7429;52.498;13.480;2023-01-30T17:53:34;5.10;99.90
14682;DHT22;7429;52.498;13.480;2023-01-30T17:56:40;5.20;99.90
14682;DHT22;7429;52.498;13.480;2023-01-30T17:59:45;5.20;99.90
14682;DHT22;7429;52.498;13.480;2023-01-30T18:02:52;5.30;99.90
14682;DHT22;7429;52.498;13.480;2023-01-30T18:05:56;5.30;99.90
14682;DHT22;7429;52.498;13.480;2023-01-30T18:09:00;5.30;99.90
14682;DHT22;7429;52.498;13.480;2023-01-30T18:12:05;5.30;99.90
14682;DHT22;7429;52.498;13.480;2023-01-30T18:15:12;5.40;99.90
14682;DHT22;7429;52.498;13.480;2023-01-30T18:18:18;5.40;99.90
14682;DHT22;7429;52.498;13.480;2023-01-30T18:21:21;5.50;99.90
14682;DHT22;7429;52.498;13.480;2023-01-30T18:24:25;5.50;99.90
14682;DHT22;7429;52.498;13.480;2023-01-30T18:27:31;5.60;99.90
14682;DHT22;7429;52.498;13.480;2023-01-30T18:30:38;5.60;99.90
14682;DHT22;7429;52.498;13.480;2023-01-30T18:33:51;5.70;99.90
14682;DHT22;7429;52.498;13.480;2023-01-30T18:36:56;5.70;99.90
14682;DHT22;7429;52.498;13.480;2023-01-30T18:39:59;5.70;99.90
14682;DHT22;7429;52.498;13.480;2023-01-30T18:43:02;5.70;99.90
14682;DHT22;7429;52.498;13.480;2023-01-30T18:46:09;5.80;99.90
14682;DHT22;7429;52.498;13.480;2023-01-30T18:49:15;5.70;99.90
14682;DHT22;7429;52.498;13.480;2023-01-30T18:52:28;5.80;99.90
14682;DHT22;7429;52.498;13.480;2023-01-30T18:55:31;5.90;99.90
14682;DHT22;7429;52.498;13.480;2023-01-30T18:58:35;5.80;99.90
14682;DHT22;7429;52.498;13.480;2023-01-30T19:01:39;5.70;99.90
14682;DHT22;7429;52.498;13.480;2023-01-30T19:04:47;5.70;99.90
14682;DHT22;7429;52.498;13.480;2023-01-30T19:07:51;5.80;99.90
14682;DHT22;7429;52.498;13.480;2023-01-30T19:11:01;5.80;99.90
14682;DHT22;7429;52.498;13.480;2023-01-30T19:14:26;5.80;99.90
14682;DHT22;7429;52.498;13.480;2023-01-30T19:17:32;5.70;99.90
14682;DHT22;7429;52.498;13.480;2023-01-30T19:20:37;5.70;99.90
14682;DHT22;7429;52.498;13.480;2023-01-30T19:23:40;5.70;99.90
14682;DHT22;7429;52.498;13.480;2023-01-30T19:26:46;5.80;99.90
14682;DHT22;7429;52.498;13.480;2023-01-30T19:29:49;5.70;99.90
14682;DHT22;7429;52.498;13.480;2023-01-30T19:32:53;5.70;99.90
14682;DHT22;7429;52.498;13.480;2023-01-30T19:36:08;5.70;99.90
14682;DHT22;7429;52.498;13.480;2023-01-30T19:39:12;5.60;99.90
14682;DHT22;7429;52.498;13.480;2023-01-30T19:42:15;5.60;99.90
14682;DHT22;7429;52.498;13.480;2023-01-30T19:45:18;5.60;99.90
14682;DHT22;7429;52.498;13.480;2023-01-30T19:48:25;5.60;99.90
14682;DHT22;7429;52.498;13.480;2023-01-30T19:51:33;5.70;99.90
14682;DHT22;7429;52.498;13.480;2023-01-30T19:54:40;5.60;99.90
14682;DHT22;7429;52.498;13.480;2023-01-30T19:57:43;5.60;99.90
14682;DHT22;7429;52.498;13.480;2023-01-30T20:00:46;5.60;99.90
14682;DHT22;7429;52.498;13.480;2023-01-30T20:03:53;5.60;99.90
14682;DHT22;7429;52.498;13.480;2023-01-30T20:07:04;5.60;99.90
14682;DHT22;7429;52.498;13.480;2023-01-30T20:10:09;5.60;99.90
14682;DHT22;7429;52.498;13.480;2023-01-30T20:13:12;5.50;99.90
14682;DHT22;7429;52.498;13.480;2023-01-30T20:16:17;5.40;99.90
14682;DHT22;7429;52.498;13.480;2023-01-30T20:19:21;5.40;99.90
14682;DHT22;7429;52.498;13.480;2023-01-30T20:22:26;5.40;99.90
14682;DHT22;7429;52.498;13.480;2023-01-30T20:25:29;5.40;99.90
14682;DHT22;7429;52.498;13.480;2023-01-30T20:28:35;5.30;99.90